首页
METAR-TAF:

METAR-TAF

机场 :

楠迪國際機場

楠迪, 斐濟

纬度: 17-45S, 经度: 177-27E, 海拔: 13米

当前天气观测

该预报发布于26分钟前的10:00 UTC
静风
温度 25°C
湿度 89%
气压 1015 hPa
能见度10公里或以上
少量云层高于3000英尺

METAR: NFFN 181000Z 00000KT 9999 FEW030 25/23 Q1015 NOSIG

时间: 22:26 (10:26 UTC)

预报

该预报发布于5小时和23分钟前的05:03 UTC
预报有效从18日的 06点(UTC)到 19日的 06点(UTC)
风速3节,风向多变
能见度10公里或以上
散云层高于2800英尺
散云层高于4800英尺
成为
从 18日的 22点(UTC)到 18日的 24点(UTC)
风速13节,风向西转西北

TAF: NFFN 180503Z 1806/1906 VRB03KT 9999 SCT028 SCT048 BECMG 1822/1824 30013KT

超过4000个机场的气象观测和天气预报(METAR&TAF报告)。

可查询的气象台以黄色和红色小点在地图上表示。

将鼠标移到小点上方,可查看气象台名称。

然后点击查看天气观测和预报。

如需切换地图:点击带黑十字的绿色按钮放大地图;点击带横线的绿色按钮缩小地图;或者点击绿色箭头查看邻近地区的地图。


METAR-TAF: